createdAt,value
2023-01-26T00:01:19.931Z,27.25
2023-01-26T00:03:46.926Z,29.85
2023-01-26T00:06:16.131Z,30.73
2023-01-26T00:08:45.257Z,30.67
2023-01-26T00:11:14.584Z,28.42
2023-01-26T00:13:41.535Z,30.88
2023-01-26T00:16:11.397Z,32.92
2023-01-26T00:18:39.405Z,31.52
2023-01-26T00:21:07.909Z,30.48
2023-01-26T00:23:35.803Z,30.42
2023-01-26T00:26:02.923Z,31.15
2023-01-26T00:28:29.502Z,31.20
2023-01-26T00:31:06.929Z,30.23
2023-01-26T00:33:33.735Z,29.92
2023-01-26T00:36:00.409Z,29.73
2023-01-26T00:38:28.488Z,28.13
2023-01-26T00:40:55.335Z,28.65
2023-01-26T00:43:22.051Z,30.05
2023-01-26T00:45:48.670Z,29.77
2023-01-26T00:48:15.606Z,28.17
2023-01-26T00:50:42.259Z,30.98
2023-01-26T00:53:09.727Z,30.58
2023-01-26T00:55:37.507Z,29.08
2023-01-26T00:58:06.840Z,28.58
2023-01-26T01:00:34.944Z,30.30
2023-01-26T01:03:02.023Z,29.20
2023-01-26T01:05:30.613Z,29.95
2023-01-26T01:07:57.834Z,30.35
2023-01-26T01:10:27.124Z,28.27
2023-01-26T01:12:54.753Z,29.92
2023-01-26T01:15:21.313Z,30.80
2023-01-26T01:17:48.281Z,29.80
2023-01-26T01:20:15.037Z,29.23
2023-01-26T01:22:41.614Z,30.33
2023-01-26T01:25:08.647Z,29.55
2023-01-26T01:27:35.219Z,29.48
2023-01-26T01:30:07.533Z,30.48
2023-01-26T01:32:39.697Z,30.17
2023-01-26T01:35:07.080Z,28.63
2023-01-26T01:37:33.765Z,29.83
2023-01-26T01:40:00.504Z,28.90
2023-01-26T01:42:27.206Z,30.40
2023-01-26T01:45:28.389Z,29.35
2023-01-26T01:47:58.612Z,30.30
2023-01-26T01:50:27.485Z,28.35
2023-01-26T01:52:55.456Z,28.00
2023-01-26T01:55:24.756Z,29.13
2023-01-26T01:57:55.620Z,28.63
2023-01-26T02:00:24.262Z,30.42
2023-01-26T02:03:14.790Z,30.15
2023-01-26T02:05:57.950Z,28.70
2023-01-26T02:08:29.512Z,29.55
2023-01-26T02:11:00.771Z,29.23
2023-01-26T02:13:28.437Z,28.95
2023-01-26T02:15:55.363Z,28.10
2023-01-26T02:18:22.045Z,29.73
2023-01-26T02:21:03.204Z,29.02
2023-01-26T02:23:48.223Z,29.15
2023-01-26T02:28:44.643Z,30.20
2023-01-26T02:31:12.245Z,30.13
2023-01-26T02:33:39.110Z,28.85
2023-01-26T02:36:07.346Z,29.27
2023-01-26T02:38:39.435Z,28.70
2023-01-26T02:41:09.217Z,29.38
2023-01-26T02:43:36.467Z,29.85
2023-01-26T02:46:03.352Z,30.17
2023-01-26T02:48:52.780Z,29.38
2023-01-26T02:51:19.360Z,28.75
2023-01-26T02:53:46.017Z,27.63
2023-01-26T02:56:12.571Z,29.63
2023-01-26T02:58:39.211Z,28.35
2023-01-26T03:01:05.870Z,28.10
2023-01-26T03:03:42.037Z,28.25
2023-01-26T03:06:13.268Z,27.33
2023-01-26T03:08:40.269Z,27.88
2023-01-26T03:11:08.185Z,26.58
2023-01-26T03:13:35.668Z,26.38
2023-01-26T03:16:06.944Z,26.17
2023-01-26T03:18:54.095Z,25.63
2023-01-26T03:21:39.437Z,24.75
2023-01-26T03:24:24.894Z,24.52
2023-01-26T03:27:09.624Z,27.00
2023-01-26T03:29:36.185Z,24.73
2023-01-26T03:32:02.853Z,25.92
2023-01-26T03:34:29.743Z,27.13
2023-01-26T03:36:56.631Z,25.40
2023-01-26T03:39:41.603Z,25.05
2023-01-26T03:42:26.391Z,25.63
2023-01-26T03:45:11.853Z,24.15
2023-01-26T03:47:57.047Z,24.27
2023-01-26T03:50:42.487Z,25.10
2023-01-26T03:53:45.495Z,23.50
2023-01-26T03:56:18.159Z,25.80
2023-01-26T03:58:46.253Z,23.98
2023-01-26T04:01:19.822Z,24.70
2023-01-26T04:04:09.187Z,25.30
2023-01-26T04:06:55.703Z,23.83
2023-01-26T04:09:22.575Z,25.88
2023-01-26T04:11:49.506Z,26.02
2023-01-26T04:14:36.372Z,25.10
2023-01-26T04:17:35.896Z,23.98
2023-01-26T04:20:21.287Z,24.45
2023-01-26T04:22:47.858Z,23.83
2023-01-26T04:25:16.895Z,24.88
2023-01-26T04:27:43.944Z,23.15
2023-01-26T04:30:13.189Z,25.60
2023-01-26T04:32:40.212Z,23.83
2023-01-26T04:35:08.599Z,24.42
2023-01-26T04:37:35.256Z,24.90
2023-01-26T04:40:02.406Z,25.90
2023-01-26T04:42:28.995Z,24.80
2023-01-26T04:44:55.545Z,25.70
2023-01-26T04:47:23.023Z,24.13
2023-01-26T04:49:49.628Z,23.90
2023-01-26T04:52:16.405Z,24.40
2023-01-26T04:54:42.987Z,23.80
2023-01-26T04:57:09.704Z,25.08
2023-01-26T04:59:36.741Z,24.85
2023-01-26T05:02:03.319Z,24.02
2023-01-26T05:04:30.004Z,24.65
2023-01-26T05:06:56.629Z,24.35
2023-01-26T05:09:23.185Z,23.77
2023-01-26T05:11:49.756Z,23.65
2023-01-26T05:14:16.314Z,24.85
2023-01-26T05:16:42.951Z,23.92
2023-01-26T05:19:09.530Z,23.58
2023-01-26T05:21:36.184Z,23.75
2023-01-26T05:24:02.856Z,25.70
2023-01-26T05:26:29.514Z,26.13
2023-01-26T05:28:56.200Z,27.13
2023-01-26T05:31:22.899Z,27.35
2023-01-26T05:33:49.456Z,27.67
2023-01-26T05:36:16.090Z,27.45
2023-01-26T05:38:42.643Z,28.05
2023-01-26T05:41:09.251Z,26.30
2023-01-26T05:43:35.816Z,27.63
2023-01-26T05:46:02.464Z,28.05
2023-01-26T05:48:29.136Z,27.73
2023-01-26T05:50:57.565Z,25.98
2023-01-26T05:53:24.391Z,25.42
2023-01-26T05:55:50.949Z,25.52
2023-01-26T05:58:17.548Z,26.42
2023-01-26T06:00:44.091Z,26.60
2023-01-26T06:03:10.630Z,24.58
2023-01-26T06:05:38.807Z,26.88
2023-01-26T06:08:05.720Z,25.88
2023-01-26T06:10:32.332Z,25.52
2023-01-26T06:13:00.350Z,24.70
2023-01-26T06:15:26.946Z,25.60
2023-01-26T06:17:53.489Z,24.75
2023-01-26T06:20:20.064Z,27.35
2023-01-26T06:22:46.681Z,25.95
2023-01-26T06:25:13.339Z,25.38
2023-01-26T06:27:42.391Z,26.52
2023-01-26T06:30:11.481Z,25.50
2023-01-26T06:32:38.191Z,25.92
2023-01-26T06:35:06.641Z,26.30
2023-01-26T06:37:33.610Z,24.25
2023-01-26T06:40:00.215Z,25.42
2023-01-26T06:42:26.819Z,24.77
2023-01-26T06:44:53.396Z,25.33
2023-01-26T06:47:19.944Z,24.90
2023-01-26T06:49:46.555Z,23.98
2023-01-26T06:52:28.221Z,23.67
2023-01-26T06:54:57.495Z,24.25
2023-01-26T06:57:24.060Z,26.45
2023-01-26T06:59:50.686Z,24.00
2023-01-26T07:02:22.142Z,23.55
2023-01-26T07:04:49.945Z,24.52
2023-01-26T07:07:16.921Z,23.17
2023-01-26T07:09:43.556Z,25.30
2023-01-26T07:12:10.182Z,24.17
2023-01-26T07:14:36.758Z,24.95
2023-01-26T07:17:04.069Z,23.65
2023-01-26T07:19:33.156Z,23.48
2023-01-26T07:22:00.759Z,22.65
2023-01-26T07:24:27.696Z,23.20
2023-01-26T07:26:54.706Z,21.92
2023-01-26T07:29:22.005Z,22.90
2023-01-26T07:31:48.730Z,23.02
2023-01-26T07:34:15.326Z,22.13
2023-01-26T07:36:41.969Z,22.33
2023-01-26T07:39:08.903Z,22.90
2023-01-26T07:41:35.896Z,22.60
2023-01-26T07:44:02.591Z,21.75
2023-01-26T07:46:29.320Z,23.02
2023-01-26T07:48:56.767Z,22.77
2023-01-26T07:51:23.855Z,22.48
2023-01-26T07:53:50.444Z,23.20
2023-01-26T07:56:20.534Z,22.33
2023-01-26T07:58:52.072Z,22.10
2023-01-26T08:01:18.864Z,23.38
2023-01-26T08:03:45.872Z,21.45
2023-01-26T08:06:14.910Z,24.25
2023-01-26T08:08:43.158Z,22.45
2023-01-26T08:11:11.441Z,22.45
2023-01-26T08:13:38.588Z,23.70
2023-01-26T08:16:10.886Z,24.70
2023-01-26T08:18:38.700Z,23.02
2023-01-26T08:21:05.565Z,25.83
2023-01-26T08:23:32.512Z,23.65
2023-01-26T08:26:03.699Z,25.13
2023-01-26T08:28:30.393Z,24.60
2023-01-26T08:30:57.559Z,23.20
2023-01-26T08:33:24.464Z,23.45
2023-01-26T08:35:51.081Z,25.08
2023-01-26T08:38:17.737Z,22.70
2023-01-26T08:40:44.306Z,23.60
2023-01-26T08:43:10.876Z,21.05
2023-01-26T08:45:37.532Z,22.45
2023-01-26T08:48:04.965Z,24.05
2023-01-26T08:50:31.516Z,22.75
2023-01-26T08:52:58.102Z,23.25
2023-01-26T08:55:24.793Z,23.40
2023-01-26T08:57:55.255Z,22.85
2023-01-26T09:00:23.208Z,22.70
2023-01-26T09:02:49.939Z,23.63
2023-01-26T09:05:16.643Z,23.65
2023-01-26T09:07:44.759Z,22.77
2023-01-26T09:10:11.872Z,22.90
2023-01-26T09:12:40.960Z,23.45
2023-01-26T09:15:08.499Z,23.52
2023-01-26T09:17:35.671Z,23.30
2023-01-26T09:20:02.246Z,23.85
2023-01-26T09:22:28.984Z,23.92
2023-01-26T09:24:55.543Z,24.77
2023-01-26T09:27:22.208Z,24.70
2023-01-26T09:29:49.094Z,23.33
2023-01-26T09:32:15.792Z,23.55
2023-01-26T09:34:45.464Z,24.83
2023-01-26T09:37:12.523Z,24.38
2023-01-26T09:39:39.142Z,24.77
2023-01-26T09:42:24.392Z,23.17
2023-01-26T09:45:07.513Z,23.23
2023-01-26T09:47:51.361Z,24.10
2023-01-26T09:50:27.364Z,24.33
2023-01-26T09:53:12.539Z,23.00
2023-01-26T09:55:41.815Z,24.17
2023-01-26T09:58:17.908Z,24.15
2023-01-26T10:00:50.616Z,24.45
2023-01-26T10:03:37.672Z,23.65
2023-01-26T10:06:29.130Z,25.08
2023-01-26T10:09:00.779Z,23.10
2023-01-26T10:11:38.833Z,25.30
2023-01-26T10:14:15.052Z,25.73
2023-01-26T10:16:46.808Z,25.00
2023-01-26T10:19:21.990Z,24.42
2023-01-26T10:21:51.688Z,25.05
2023-01-26T10:24:23.536Z,25.63
2023-01-26T10:26:53.008Z,26.20
2023-01-26T10:29:20.669Z,25.42
2023-01-26T10:31:49.675Z,24.48
2023-01-26T10:34:22.747Z,25.25
2023-01-26T10:36:49.326Z,25.98
2023-01-26T10:39:17.941Z,24.25
2023-01-26T10:41:59.732Z,26.33
2023-01-26T10:44:36.042Z,25.23
2023-01-26T10:47:22.852Z,24.27
2023-01-26T10:49:49.480Z,24.83
2023-01-26T10:52:25.512Z,25.85
2023-01-26T10:55:11.536Z,25.85
2023-01-26T10:57:39.965Z,24.67
2023-01-26T11:00:23.467Z,25.40
2023-01-26T11:02:53.377Z,24.60
2023-01-26T11:05:25.404Z,25.30
2023-01-26T11:08:07.911Z,26.17
2023-01-26T11:10:37.822Z,25.65
2023-01-26T11:13:12.493Z,25.85
2023-01-26T11:18:45.523Z,25.13
2023-01-26T11:21:36.730Z,26.27
2023-01-26T11:24:25.467Z,25.33
2023-01-26T11:27:33.483Z,25.08
2023-01-26T11:30:06.391Z,26.33
2023-01-26T11:32:59.264Z,26.58
2023-01-26T11:35:32.139Z,26.33
2023-01-26T11:38:21.843Z,27.90
2023-01-26T11:41:03.178Z,25.38
2023-01-26T11:43:39.007Z,26.92
2023-01-26T11:46:33.200Z,25.42
2023-01-26T11:49:08.683Z,25.48
2023-01-26T11:51:51.982Z,25.27
2023-01-26T11:54:51.974Z,26.85
2023-01-26T11:57:52.931Z,26.73
2023-01-26T12:00:30.600Z,25.80
2023-01-26T12:03:04.729Z,25.52
2023-01-26T12:05:49.010Z,27.10
2023-01-26T12:08:38.595Z,26.35
2023-01-26T12:11:23.345Z,26.65
2023-01-26T12:14:04.245Z,28.35
2023-01-26T12:16:40.016Z,27.35
2023-01-26T12:19:16.343Z,25.73
2023-01-26T12:21:45.597Z,27.77
2023-01-26T12:24:48.427Z,25.83
2023-01-26T12:27:18.444Z,26.17
2023-01-26T12:30:04.804Z,26.83
2023-01-26T12:32:31.402Z,26.90
2023-01-26T12:34:58.562Z,25.48
2023-01-26T12:38:05.661Z,26.85
2023-01-26T12:40:52.196Z,27.25
2023-01-26T12:43:18.713Z,25.85
2023-01-26T12:45:50.088Z,27.23
2023-01-26T12:48:37.995Z,25.33
2023-01-26T12:51:11.366Z,28.63
2023-01-26T12:53:52.304Z,26.92
2023-01-26T12:56:33.144Z,26.95
2023-01-26T12:59:06.963Z,27.98
2023-01-26T13:01:43.328Z,27.20
2023-01-26T13:04:14.808Z,27.50
2023-01-26T13:06:41.765Z,27.38
2023-01-26T13:09:24.843Z,27.08
2023-01-26T13:12:00.811Z,27.98
2023-01-26T13:14:42.417Z,26.38
2023-01-26T13:17:14.748Z,27.60
2023-01-26T13:19:44.166Z,27.10
2023-01-26T13:22:19.716Z,26.00
2023-01-26T13:24:48.840Z,28.27
2023-01-26T13:27:40.752Z,27.70
2023-01-26T13:30:25.749Z,26.45
2023-01-26T13:33:25.045Z,27.15
2023-01-26T13:35:54.585Z,27.00
2023-01-26T13:38:31.476Z,27.40
2023-01-26T13:40:59.077Z,27.02
2023-01-26T13:43:38.093Z,26.83
2023-01-26T13:46:14.540Z,27.63
2023-01-26T13:48:48.311Z,26.38
2023-01-26T13:51:21.853Z,28.52
2023-01-26T13:53:50.001Z,28.38
2023-01-26T13:56:30.572Z,28.05
2023-01-26T13:59:09.571Z,26.75
2023-01-26T14:01:43.696Z,27.10
2023-01-26T14:04:15.154Z,28.23
2023-01-26T14:06:45.452Z,28.98
2023-01-26T14:09:15.339Z,27.77
2023-01-26T14:11:42.961Z,28.85
2023-01-26T14:14:25.967Z,28.98
2023-01-26T14:16:52.635Z,29.05
2023-01-26T14:19:22.325Z,30.25
2023-01-26T14:21:57.669Z,31.45
2023-01-26T14:24:34.679Z,31.02
2023-01-26T14:27:02.921Z,30.90
2023-01-26T14:29:33.952Z,31.73
2023-01-26T14:32:01.187Z,31.27
2023-01-26T14:34:30.027Z,33.30
2023-01-26T14:37:15.188Z,33.85
2023-01-26T14:39:47.992Z,34.20
2023-01-26T14:42:17.380Z,33.28
2023-01-26T14:44:44.089Z,34.08
2023-01-26T14:47:18.372Z,35.05
2023-01-26T14:49:56.988Z,33.78
2023-01-26T14:52:34.859Z,33.60
2023-01-26T14:55:07.407Z,34.30
2023-01-26T14:57:34.506Z,34.72
2023-01-26T15:00:02.448Z,32.53
2023-01-26T15:02:38.704Z,32.63
2023-01-26T15:05:17.332Z,32.97
2023-01-26T15:07:55.037Z,32.47
2023-01-26T15:10:32.751Z,32.80
2023-01-26T15:13:23.884Z,32.13
2023-01-26T15:16:14.520Z,32.55
2023-01-26T15:18:41.103Z,32.15
2023-01-26T15:21:21.671Z,32.67
2023-01-26T15:23:53.323Z,31.80
2023-01-26T15:26:31.854Z,32.90
2023-01-26T15:29:00.917Z,30.23
2023-01-26T15:31:36.660Z,31.38
2023-01-26T15:34:04.317Z,32.22
2023-01-26T15:36:47.227Z,32.75
2023-01-26T15:39:17.316Z,31.45
2023-01-26T15:41:58.288Z,32.75
2023-01-26T15:44:25.011Z,32.08
2023-01-26T15:46:51.611Z,32.22
2023-01-26T15:49:20.077Z,31.40
2023-01-26T15:51:46.678Z,31.85
2023-01-26T15:54:13.271Z,30.88
2023-01-26T15:56:39.826Z,29.55
2023-01-26T15:59:06.823Z,29.73
2023-01-26T16:01:33.522Z,28.20
2023-01-26T16:04:00.111Z,26.27
2023-01-26T16:06:32.523Z,29.20
2023-01-26T16:08:59.092Z,25.83
2023-01-26T16:11:33.615Z,27.08
2023-01-26T16:14:04.298Z,26.17
2023-01-26T16:16:32.282Z,25.13
2023-01-26T16:18:59.300Z,24.98
2023-01-26T16:21:30.263Z,25.17
2023-01-26T16:23:57.251Z,25.33
2023-01-26T16:26:23.926Z,23.73
2023-01-26T16:28:50.540Z,23.98
2023-01-26T16:31:26.772Z,23.85
2023-01-26T16:33:53.505Z,24.95
2023-01-26T16:36:20.939Z,24.45
2023-01-26T16:38:48.211Z,24.95
2023-01-26T16:41:16.638Z,24.63
2023-01-26T16:43:43.487Z,23.63
2023-01-26T16:46:10.620Z,24.20
2023-01-26T16:48:39.489Z,24.58
2023-01-26T16:51:26.483Z,25.05
2023-01-26T16:53:54.003Z,25.35
2023-01-26T16:56:21.292Z,23.95
2023-01-26T16:58:48.027Z,25.77
2023-01-26T17:01:24.209Z,24.02
2023-01-26T17:03:51.900Z,26.77
2023-01-26T17:06:19.839Z,28.20
2023-01-26T17:08:46.601Z,26.52
2023-01-26T17:11:27.607Z,27.25
2023-01-26T17:13:56.233Z,27.70
2023-01-26T17:16:29.736Z,25.80
2023-01-26T17:18:56.931Z,25.20
2023-01-26T17:21:23.629Z,25.20
2023-01-26T17:23:52.125Z,25.48
2023-01-26T17:26:20.487Z,24.80
2023-01-26T17:28:51.666Z,24.75
2023-01-26T17:31:20.486Z,25.90
2023-01-26T17:33:49.295Z,25.92
2023-01-26T17:36:17.678Z,24.52
2023-01-26T17:38:44.926Z,25.13
2023-01-26T17:41:11.703Z,25.05
2023-01-26T17:43:38.310Z,25.35
2023-01-26T17:46:06.844Z,25.33
2023-01-26T17:48:36.293Z,25.48
2023-01-26T17:51:06.723Z,24.83
2023-01-26T17:53:36.158Z,26.08
2023-01-26T17:56:02.751Z,25.50
2023-01-26T17:58:29.312Z,26.98
2023-01-26T18:00:55.958Z,28.08
2023-01-26T18:03:26.366Z,28.08
2023-01-26T18:05:57.384Z,26.83
2023-01-26T18:08:25.005Z,28.27
2023-01-26T18:10:58.583Z,28.48
2023-01-26T18:13:25.229Z,28.83
2023-01-26T18:15:54.773Z,29.58
2023-01-26T18:18:26.001Z,26.52
2023-01-26T18:20:52.697Z,27.50
2023-01-26T18:23:20.431Z,26.02
2023-01-26T18:25:47.213Z,26.60
2023-01-26T18:28:14.877Z,26.25
2023-01-26T18:30:42.146Z,27.33
2023-01-26T18:33:08.956Z,26.65
2023-01-26T18:35:36.105Z,26.55
2023-01-26T18:38:03.379Z,25.85
2023-01-26T18:40:30.775Z,27.35
2023-01-26T18:42:57.754Z,28.23
2023-01-26T18:45:24.434Z,26.67
2023-01-26T18:47:51.183Z,29.23
2023-01-26T18:50:18.298Z,29.10
2023-01-26T18:52:44.957Z,28.92
2023-01-26T18:55:11.898Z,28.15
2023-01-26T18:57:38.895Z,29.13
2023-01-26T19:00:07.985Z,30.33
2023-01-26T19:02:38.814Z,29.77
2023-01-26T19:05:08.920Z,30.25
2023-01-26T19:07:35.633Z,30.08
2023-01-26T19:10:04.891Z,29.80
2023-01-26T19:12:31.732Z,30.73
2023-01-26T19:14:58.415Z,30.75
2023-01-26T19:17:25.116Z,31.13
2023-01-26T19:19:51.747Z,30.33
2023-01-26T19:22:18.505Z,30.02
2023-01-26T19:24:45.348Z,29.83
2023-01-26T19:27:11.978Z,30.38
2023-01-26T19:29:38.532Z,30.13
2023-01-26T19:32:05.353Z,29.33
2023-01-26T19:34:33.761Z,30.92
2023-01-26T19:37:00.493Z,30.80
2023-01-26T19:39:27.038Z,31.00
2023-01-26T19:41:53.846Z,29.95
2023-01-26T19:44:20.380Z,30.98
2023-01-26T19:46:50.582Z,30.38
2023-01-26T19:49:17.529Z,31.50
2023-01-26T19:51:44.150Z,30.75
2023-01-26T19:54:10.741Z,30.63
2023-01-26T19:56:38.012Z,29.90
2023-01-26T19:59:07.567Z,30.40
2023-01-26T20:01:34.205Z,31.05
2023-01-26T20:04:04.209Z,31.05
2023-01-26T20:06:33.742Z,31.88
2023-01-26T20:09:00.918Z,29.23
2023-01-26T20:11:29.799Z,31.95
2023-01-26T20:13:57.635Z,30.38
2023-01-26T20:16:27.951Z,29.77
2023-01-26T20:18:58.720Z,31.05
2023-01-26T20:21:26.230Z,30.77
2023-01-26T20:23:55.385Z,30.67
2023-01-26T20:26:23.998Z,30.27
2023-01-26T20:28:52.109Z,31.10
2023-01-26T20:31:21.631Z,30.60
2023-01-26T20:33:49.954Z,31.33
2023-01-26T20:36:19.328Z,30.15
2023-01-26T20:38:47.674Z,32.42
2023-01-26T20:41:17.241Z,32.28
2023-01-26T20:43:58.678Z,34.15
2023-01-26T20:46:28.012Z,31.73
2023-01-26T20:48:56.168Z,31.40
2023-01-26T20:51:26.354Z,30.80
2023-01-26T20:53:52.926Z,30.75
2023-01-26T20:56:22.169Z,30.50
2023-01-26T20:58:52.376Z,29.15
2023-01-26T21:01:19.759Z,31.33
2023-01-26T21:03:46.469Z,31.42
2023-01-26T21:06:15.720Z,30.52
2023-01-26T21:08:42.581Z,29.13
2023-01-26T21:11:13.800Z,31.25
2023-01-26T21:13:43.501Z,29.42
2023-01-26T21:16:13.362Z,30.40
2023-01-26T21:18:40.563Z,29.27
2023-01-26T21:21:10.271Z,31.17
2023-01-26T21:23:36.844Z,28.02
2023-01-26T21:26:04.764Z,30.63
2023-01-26T21:28:31.844Z,28.80
2023-01-26T21:31:09.685Z,30.20
2023-01-26T21:33:39.769Z,29.45
2023-01-26T21:36:07.951Z,30.25
2023-01-26T21:38:37.087Z,29.42
2023-01-26T21:41:29.503Z,27.40
2023-01-26T21:44:20.300Z,27.58
2023-01-26T21:46:48.891Z,28.55
2023-01-26T21:49:16.196Z,27.95
2023-01-26T21:52:01.268Z,26.52
2023-01-26T21:56:57.170Z,26.13
2023-01-26T21:59:23.782Z,26.75
2023-01-26T22:01:55.503Z,25.80
2023-01-26T22:04:26.808Z,26.27
2023-01-26T22:06:54.140Z,25.20
2023-01-26T22:09:21.437Z,26.52
2023-01-26T22:11:50.527Z,24.95
2023-01-26T22:14:20.576Z,24.40
2023-01-26T22:16:47.277Z,25.05
2023-01-26T22:19:14.136Z,25.08
2023-01-26T22:21:41.072Z,25.90
2023-01-26T22:24:11.586Z,24.58
2023-01-26T22:26:38.639Z,24.25
2023-01-26T22:29:05.799Z,25.52
2023-01-26T22:31:32.987Z,24.70
2023-01-26T22:34:00.935Z,25.85
2023-01-26T22:36:28.468Z,26.55
2023-01-26T22:38:55.711Z,25.20
2023-01-26T22:41:27.340Z,24.88
2023-01-26T22:43:56.488Z,24.50
2023-01-26T22:46:25.280Z,24.88
2023-01-26T22:48:52.220Z,26.65
2023-01-26T22:51:20.523Z,25.33
2023-01-26T22:53:49.294Z,24.40
2023-01-26T22:56:34.793Z,25.17
2023-01-26T22:59:01.785Z,24.80
2023-01-26T23:01:31.229Z,26.42
2023-01-26T23:03:58.852Z,26.02
2023-01-26T23:06:26.463Z,24.35
2023-01-26T23:08:53.343Z,24.52
2023-01-26T23:11:23.139Z,25.13
2023-01-26T23:13:51.132Z,25.85
2023-01-26T23:16:18.053Z,25.23
2023-01-26T23:18:45.031Z,25.75
2023-01-26T23:21:12.123Z,25.00
2023-01-26T23:23:39.260Z,26.48
2023-01-26T23:26:06.042Z,24.75
2023-01-26T23:28:36.511Z,24.90
2023-01-26T23:31:03.641Z,25.00
2023-01-26T23:33:32.105Z,26.70
2023-01-26T23:35:58.685Z,27.25
2023-01-26T23:38:27.749Z,26.17
2023-01-26T23:40:54.723Z,25.00
2023-01-26T23:43:22.077Z,25.58
2023-01-26T23:45:49.993Z,24.63
2023-01-26T23:48:17.191Z,25.35
2023-01-26T23:50:43.801Z,26.90
2023-01-26T23:53:12.538Z,26.98
2023-01-26T23:55:43.504Z,27.05
2023-01-26T23:58:11.413Z,27.33
